Time;durP1;ratioP1;P1;durP2;ratioP2;P2;SDS_P1;SDS_P2;PMS_P1;PMS_P2;Temp;Humidity;BMP_temperature;BMP_pressure;BME280_temperature;BME280_humidity;BME280_pressure;Samples;Min_cycle;Max_cycle;Signal;HPM_P1;HPM_P2
2023/07/31 00:01:23;;;;;;;1999.90;999.90;;;17.00;99.90;;;;;;4993445;28;20287;-72
2023/07/31 00:03:49;;;;;;;1999.90;999.90;;;17.00;99.90;;;;;;4993934;28;20182;-72
2023/07/31 00:06:15;;;;;;;1999.90;999.90;;;17.00;99.90;;;;;;4994514;28;20212;-72
2023/07/31 00:08:40;;;;;;;1999.90;999.90;;;17.00;99.90;;;;;;4994446;28;20416;-73
2023/07/31 00:11:06;;;;;;;1999.90;999.90;;;17.10;99.90;;;;;;4994023;28;20180;-72
2023/07/31 00:13:31;;;;;;;1999.90;999.90;;;17.10;99.90;;;;;;4994314;28;20173;-72
2023/07/31 00:15:57;;;;;;;1999.90;999.90;;;17.20;99.90;;;;;;4994271;28;20176;-72
2023/07/31 00:18:22;;;;;;;1999.90;999.90;;;17.20;99.90;;;;;;4994305;28;20168;-72
2023/07/31 00:20:48;;;;;;;1999.90;999.90;;;17.20;99.90;;;;;;4994026;28;20173;-73
2023/07/31 00:23:13;;;;;;;1999.90;999.90;;;17.20;99.90;;;;;;4993908;28;20197;-72
2023/07/31 00:25:39;;;;;;;1999.90;999.90;;;17.20;99.90;;;;;;4994078;28;20193;-72
2023/07/31 00:28:05;;;;;;;1999.90;999.90;;;17.20;99.90;;;;;;4994086;28;20174;-72
2023/07/31 00:30:31;;;;;;;1999.90;999.90;;;17.20;99.90;;;;;;4993988;28;20822;-72
2023/07/31 00:32:57;;;;;;;1999.90;999.90;;;17.20;99.90;;;;;;4993450;28;20212;-73
2023/07/31 00:35:23;;;;;;;1999.90;999.90;;;17.20;99.90;;;;;;4993903;28;20473;-72
2023/07/31 00:37:48;;;;;;;1999.90;999.90;;;17.20;99.90;;;;;;4993910;28;20177;-72
2023/07/31 00:40:14;;;;;;;1999.90;999.90;;;17.20;99.90;;;;;;4993949;28;20183;-72
2023/07/31 00:42:39;;;;;;;1999.90;999.90;;;17.20;99.90;;;;;;4993528;28;20190;-73
2023/07/31 00:45:05;;;;;;;1999.90;999.90;;;17.30;99.90;;;;;;4993567;28;20192;-72
2023/07/31 00:47:31;;;;;;;1999.90;999.90;;;17.30;99.90;;;;;;4993788;28;20165;-72
2023/07/31 00:49:57;;;;;;;1999.90;999.90;;;17.30;99.90;;;;;;4993593;28;20455;-72
2023/07/31 00:52:23;;;;;;;1999.90;999.90;;;17.40;99.90;;;;;;4993279;28;20428;-72
2023/07/31 00:54:49;;;;;;;1999.90;999.90;;;17.40;99.90;;;;;;4993625;28;20193;-72
2023/07/31 00:57:15;;;;;;;1999.90;999.90;;;17.40;99.90;;;;;;4993599;28;20255;-72
2023/07/31 00:59:41;;;;;;;1999.90;999.90;;;17.40;99.90;;;;;;4993477;28;20840;-72
2023/07/31 01:02:06;;;;;;;1999.90;999.90;;;17.40;99.90;;;;;;4992952;28;20789;-72
2023/07/31 01:04:32;;;;;;;1999.90;999.90;;;17.40;99.90;;;;;;4993418;28;20202;-73
2023/07/31 01:07:11;;;;;;;1999.90;999.90;;;17.40;99.90;;;;;;4993413;28;20230;-72
2023/07/31 01:10:03;;;;;;;1999.90;999.90;;;17.40;99.90;;;;;;4993403;28;20169;-73
2023/07/31 01:12:30;;;;;;;1999.90;999.90;;;17.40;99.90;;;;;;4992832;28;20420;-73
2023/07/31 01:15:10;;;;;;;1999.90;999.90;;;17.40;99.90;;;;;;4993173;28;20433;-72
2023/07/31 01:17:36;;;;;;;1999.90;999.90;;;17.40;99.90;;;;;;4993224;28;20404;-72
2023/07/31 01:20:05;;;;;;;1999.90;999.90;;;17.40;99.90;;;;;;4993176;28;20418;-72
2023/07/31 01:22:45;;;;;;;1999.90;999.90;;;17.40;99.90;;;;;;4992614;28;20420;-73
2023/07/31 01:25:36;;;;;;;1999.90;999.90;;;17.50;99.90;;;;;;4992964;28;20452;-73
2023/07/31 01:28:09;;;;;;;1999.90;999.90;;;17.60;99.90;;;;;;4992927;28;20404;-73
2023/07/31 01:30:39;;;;;;;1999.90;999.90;;;17.60;99.90;;;;;;4993131;28;20484;-73
2023/07/31 01:33:07;;;;;;;1999.90;999.90;;;17.60;99.90;;;;;;4992109;28;20449;-73
2023/07/31 01:35:34;;;;;;;1999.90;999.90;;;17.60;99.90;;;;;;4992880;28;20916;-73
2023/07/31 01:38:00;;;;;;;1999.90;999.90;;;17.60;99.90;;;;;;4992966;28;20412;-73
2023/07/31 01:40:25;;;;;;;1999.90;999.90;;;17.60;99.90;;;;;;4992773;28;20410;-73
2023/07/31 01:42:51;;;;;;;1999.90;999.90;;;17.70;99.90;;;;;;4992419;28;20569;-73
2023/07/31 01:45:17;;;;;;;1999.90;999.90;;;17.70;99.90;;;;;;4992718;28;20636;-73
2023/07/31 01:47:42;;;;;;;1999.90;999.90;;;17.80;99.90;;;;;;4992754;28;20211;-73
2023/07/31 01:50:08;;;;;;;1999.90;999.90;;;17.70;99.90;;;;;;4992666;28;20184;-73
2023/07/31 01:52:34;;;;;;;1999.90;999.90;;;17.70;99.90;;;;;;4992342;28;20185;-73
2023/07/31 01:54:59;;;;;;;1999.90;999.90;;;17.80;99.90;;;;;;4992620;28;20408;-73
2023/07/31 01:57:25;;;;;;;1999.90;999.90;;;17.80;99.90;;;;;;4992627;28;20166;-73
2023/07/31 01:59:53;;;;;;;1999.90;999.90;;;17.80;99.90;;;;;;4992730;28;20243;-73
2023/07/31 02:02:19;;;;;;;1999.90;999.90;;;17.80;99.90;;;;;;4992218;28;20325;-73
2023/07/31 02:04:44;;;;;;;1999.90;999.90;;;17.80;99.90;;;;;;4992497;28;20487;-73
2023/07/31 02:07:10;;;;;;;1999.90;999.90;;;17.80;99.90;;;;;;4992437;28;20947;-73
2023/07/31 02:09:35;;;;;;;1999.90;999.90;;;17.80;99.90;;;;;;4992536;28;20173;-73
2023/07/31 02:12:01;;;;;;;1999.90;999.90;;;17.80;99.90;;;;;;4992145;28;20547;-73
2023/07/31 02:14:27;;;;;;;1999.90;999.90;;;17.90;99.90;;;;;;4992491;28;20210;-73
2023/07/31 02:16:52;;;;;;;1999.90;999.90;;;17.90;99.90;;;;;;4992762;28;20403;-73
2023/07/31 02:19:18;;;;;;;1999.90;999.90;;;17.90;99.90;;;;;;4992369;28;20182;-73
2023/07/31 02:21:44;;;;;;;1999.90;999.90;;;17.90;99.90;;;;;;4992066;28;20652;-73
2023/07/31 02:24:09;;;;;;;1999.90;999.90;;;17.80;99.90;;;;;;4992455;28;20174;-73
2023/07/31 02:26:35;;;;;;;1999.90;999.90;;;17.90;99.90;;;;;;4992388;28;20193;-73
2023/07/31 02:29:01;;;;;;;1999.90;999.90;;;17.80;99.90;;;;;;4992381;28;20241;-73
2023/07/31 02:31:26;;;;;;;1999.90;999.90;;;17.90;99.90;;;;;;4991895;28;20637;-73
2023/07/31 02:33:52;;;;;;;1999.90;999.90;;;17.80;99.90;;;;;;4992366;28;20171;-73
2023/07/31 02:36:17;;;;;;;1999.90;999.90;;;17.90;99.90;;;;;;4992274;28;20577;-73
2023/07/31 02:38:43;;;;;;;1999.90;999.90;;;18.00;99.90;;;;;;4992235;28;20164;-73
2023/07/31 02:41:08;;;;;;;1999.90;999.90;;;18.00;99.90;;;;;;4991867;28;20210;-73
2023/07/31 02:43:34;;;;;;;1999.90;999.90;;;17.90;99.90;;;;;;4992690;28;20714;-73
2023/07/31 02:46:00;;;;;;;1999.90;999.90;;;17.90;99.90;;;;;;4995848;28;20197;-73
2023/07/31 02:48:25;;;;;;;1999.90;999.90;;;18.00;99.90;;;;;;4995808;28;20170;-73
2023/07/31 02:50:51;;;;;;;1999.90;999.90;;;17.90;99.90;;;;;;4995710;28;20174;-73
2023/07/31 02:53:16;;;;;;;1999.90;999.90;;;18.00;99.90;;;;;;4995549;28;20204;-73
2023/07/31 02:55:42;;;;;;;1999.90;999.90;;;18.00;99.90;;;;;;4995884;28;20661;-73
2023/07/31 02:58:08;;;;;;;1999.90;999.90;;;18.10;99.90;;;;;;4995783;28;20181;-73
2023/07/31 03:00:33;;;;;;;1999.90;999.90;;;18.00;99.90;;;;;;4995680;28;20177;-73
2023/07/31 03:02:59;;;;;;;1999.90;999.90;;;18.10;99.90;;;;;;4995233;28;20205;-73
2023/07/31 03:05:24;;;;;;;1999.90;999.90;;;18.00;99.90;;;;;;4995513;28;20202;-73
2023/07/31 03:07:50;;;;;;;1999.90;999.90;;;18.10;99.90;;;;;;4995737;28;20173;-73
2023/07/31 03:10:15;;;;;;;1999.90;999.90;;;18.10;99.90;;;;;;4995480;28;20173;-73
2023/07/31 03:12:41;;;;;;;1999.90;999.90;;;18.00;99.90;;;;;;4995169;28;20856;-73
2023/07/31 03:15:07;;;;;;;1999.90;999.90;;;18.10;99.90;;;;;;4995441;28;20248;-73
2023/07/31 03:17:33;;;;;;;1999.90;999.90;;;18.10;99.90;;;;;;4995374;28;20640;-73
2023/07/31 03:19:58;;;;;;;1999.90;999.90;;;18.10;99.90;;;;;;4995306;28;20469;-74
2023/07/31 03:22:24;;;;;;;1999.90;999.90;;;18.10;99.90;;;;;;4994906;28;20239;-73
2023/07/31 03:24:49;;;;;;;1999.90;999.90;;;17.90;99.90;;;;;;4995233;28;20172;-73
2023/07/31 03:27:15;;;;;;;1999.90;999.90;;;17.80;99.90;;;;;;4995295;28;20180;-73
2023/07/31 03:29:40;;;;;;;1999.90;999.90;;;17.70;99.90;;;;;;4995141;28;20175;-73
2023/07/31 03:32:06;;;;;;;1999.90;999.90;;;17.70;99.90;;;;;;4994639;28;20260;-73
2023/07/31 03:34:32;;;;;;;1999.90;999.90;;;17.60;99.90;;;;;;4995288;28;20207;-73
2023/07/31 03:36:58;;;;;;;1999.90;999.90;;;17.60;99.90;;;;;;4995020;28;20515;-73
2023/07/31 03:39:24;;;;;;;1999.90;999.90;;;17.60;99.90;;;;;;4994962;28;20174;-73
2023/07/31 03:41:49;;;;;;;1999.90;999.90;;;17.60;99.90;;;;;;4994625;28;20930;-73
2023/07/31 03:44:15;;;;;;;1999.90;999.90;;;17.50;99.90;;;;;;4994917;28;20164;-73
2023/07/31 03:46:40;;;;;;;1999.90;999.90;;;17.60;99.90;;;;;;4994741;28;20636;-73
2023/07/31 03:49:06;;;;;;;1999.90;999.90;;;17.60;99.90;;;;;;4994836;28;20167;-74
2023/07/31 03:51:31;;;;;;;1999.90;999.90;;;17.70;99.90;;;;;;4994434;28;20196;-74
2023/07/31 03:53:57;;;;;;;1999.90;999.90;;;17.60;99.90;;;;;;4994676;28;20203;-74
2023/07/31 03:56:22;;;;;;;1999.90;999.90;;;17.70;99.90;;;;;;4994247;28;20173;-74
2023/07/31 03:58:48;;;;;;;1999.90;999.90;;;17.70;99.90;;;;;;4994688;28;20179;-75
2023/07/31 04:01:14;;;;;;;1999.90;999.90;;;17.60;99.90;;;;;;4994149;28;20166;-74
2023/07/31 04:03:39;;;;;;;1999.90;999.90;;;17.70;99.90;;;;;;4994512;28;20173;-74
2023/07/31 04:06:06;;;;;;;1999.90;999.90;;;17.70;99.90;;;;;;4994508;28;20228;-74
2023/07/31 04:08:32;;;;;;;1999.90;999.90;;;17.70;99.90;;;;;;4994362;28;20176;-74
2023/07/31 04:10:58;;;;;;;1999.90;999.90;;;17.70;99.90;;;;;;4994242;28;20409;-73
2023/07/31 04:13:23;;;;;;;1999.90;999.90;;;17.70;99.90;;;;;;4994302;28;20268;-74
2023/07/31 04:15:54;;;;;;;1999.90;999.90;;;17.80;99.90;;;;;;4994329;28;20202;-74
2023/07/31 04:18:20;;;;;;;1999.90;999.90;;;17.80;99.90;;;;;;4994322;28;20208;-75
2023/07/31 04:20:45;;;;;;;1999.90;999.90;;;17.90;99.90;;;;;;4994215;28;20462;-75
2023/07/31 04:23:11;;;;;;;1999.90;999.90;;;17.90;99.90;;;;;;4993859;28;20429;-75
2023/07/31 04:25:37;;;;;;;1999.90;999.90;;;17.90;99.90;;;;;;4994095;28;20233;-74
2023/07/31 04:28:02;;;;;;;1999.90;999.90;;;18.00;99.90;;;;;;4994113;28;20175;-75
2023/07/31 04:30:28;;;;;;;1999.90;999.90;;;18.10;99.90;;;;;;4994042;28;20719;-74
2023/07/31 04:32:53;;;;;;;1999.90;999.90;;;18.10;99.90;;;;;;4993531;28;20294;-75
2023/07/31 04:35:19;;;;;;;1999.90;999.90;;;18.10;99.90;;;;;;4993984;28;20665;-74
2023/07/31 04:37:48;;;;;;;1999.90;999.90;;;18.20;99.90;;;;;;4993881;28;20252;-75
2023/07/31 04:40:14;;;;;;;1999.90;999.90;;;18.20;99.90;;;;;;4993034;28;20182;-75
2023/07/31 04:42:39;;;;;;;1999.90;999.90;;;18.20;99.90;;;;;;4993202;28;20464;-75
2023/07/31 04:45:05;;;;;;;1999.90;999.90;;;18.20;99.90;;;;;;4993494;28;20466;-75
2023/07/31 04:47:31;;;;;;;1999.90;999.90;;;18.20;99.90;;;;;;4993629;28;20174;-75
2023/07/31 04:49:56;;;;;;;1999.90;999.90;;;18.30;99.90;;;;;;4993646;28;20406;-74
2023/07/31 04:52:22;;;;;;;1999.90;999.90;;;18.40;99.90;;;;;;4993204;28;20214;-75
2023/07/31 04:54:48;;;;;;;1999.90;999.90;;;18.40;99.90;;;;;;4993598;28;20539;-73
2023/07/31 04:57:14;;;;;;;1999.90;999.90;;;18.40;99.90;;;;;;4992537;28;20186;-73
2023/07/31 04:59:40;;;;;;;1999.90;999.90;;;18.40;99.90;;;;;;4993280;28;20266;-73
2023/07/31 05:02:07;;;;;;;1999.90;999.90;;;18.40;99.90;;;;;;4993069;28;20534;-73
2023/07/31 05:04:32;;;;;;;1999.90;999.90;;;18.50;99.90;;;;;;4993439;28;20631;-73
2023/07/31 05:06:58;;;;;;;1999.90;999.90;;;18.50;99.90;;;;;;4992509;28;20554;-73
2023/07/31 05:09:23;;;;;;;1999.90;999.90;;;18.50;99.90;;;;;;4993282;28;20577;-73
2023/07/31 05:11:49;;;;;;;1999.90;999.90;;;18.60;99.90;;;;;;4992948;28;20280;-73
2023/07/31 05:14:15;;;;;;;1999.90;999.90;;;18.60;99.90;;;;;;4993240;28;20163;-73
2023/07/31 05:16:41;;;;;;;1999.90;999.90;;;18.70;99.90;;;;;;4993191;28;20193;-73
2023/07/31 05:19:06;;;;;;;1999.90;999.90;;;18.70;99.90;;;;;;4993191;28;20839;-73
2023/07/31 05:21:32;;;;;;;1999.90;999.90;;;18.70;99.90;;;;;;4992807;28;20201;-73
2023/07/31 05:23:58;;;;;;;1999.90;999.90;;;18.70;99.90;;;;;;4993082;28;20534;-74
2023/07/31 05:26:23;;;;;;;1999.90;999.90;;;18.70;99.90;;;;;;4992975;28;20191;-73
2023/07/31 05:28:49;;;;;;;1999.90;999.90;;;18.70;99.90;;;;;;4993037;28;20832;-73
2023/07/31 05:31:14;;;;;;;1999.90;999.90;;;18.70;99.90;;;;;;4992553;28;20166;-74
2023/07/31 05:33:40;;;;;;;1999.90;999.90;;;18.70;99.90;;;;;;4993309;28;20631;-73
2023/07/31 05:36:06;;;;;;;1999.90;999.90;;;18.70;99.90;;;;;;4992898;28;20564;-73
2023/07/31 05:38:31;;;;;;;1999.90;999.90;;;18.70;99.90;;;;;;4992786;28;20170;-73
2023/07/31 05:40:57;;;;;;;1999.90;999.90;;;18.60;99.90;;;;;;4992587;28;20677;-73
2023/07/31 05:43:22;;;;;;;1999.90;999.90;;;18.60;99.90;;;;;;4992648;28;20194;-73
2023/07/31 05:45:48;;;;;;;1999.90;999.90;;;18.60;99.90;;;;;;4992826;28;20287;-73
2023/07/31 05:48:14;;;;;;;1999.90;999.90;;;18.70;99.90;;;;;;4992759;28;20166;-74
2023/07/31 05:50:39;;;;;;;1999.90;999.90;;;18.70;99.90;;;;;;4992645;28;20177;-73
2023/07/31 05:53:06;;;;;;;1999.90;999.90;;;18.60;99.90;;;;;;4992360;28;20192;-73
2023/07/31 05:55:32;;;;;;;1999.90;999.90;;;18.60;99.90;;;;;;4992652;28;20234;-73
2023/07/31 05:57:57;;;;;;;1999.90;999.90;;;18.60;99.90;;;;;;4992626;28;20411;-73
2023/07/31 06:00:23;;;;;;;1999.90;999.90;;;18.40;99.90;;;;;;4992603;28;20293;-73
2023/07/31 06:02:49;;;;;;;1999.90;999.90;;;18.40;99.90;;;;;;4992202;28;20204;-74
2023/07/31 06:05:14;;;;;;;1999.90;999.90;;;18.30;99.90;;;;;;4992417;28;20174;-74
2023/07/31 06:07:40;;;;;;;1999.90;999.90;;;18.20;99.90;;;;;;4991513;28;20308;-74
2023/07/31 06:10:06;;;;;;;1999.90;999.90;;;18.10;99.90;;;;;;4992463;28;20551;-73
2023/07/31 06:12:33;;;;;;;1999.90;999.90;;;18.10;99.90;;;;;;4992030;28;20905;-73
2023/07/31 06:14:58;;;;;;;1999.90;999.90;;;18.00;99.90;;;;;;4992503;28;20910;-73
2023/07/31 06:17:24;;;;;;;1999.90;999.90;;;18.10;99.90;;;;;;4992753;28;20411;-74
2023/07/31 06:19:50;;;;;;;1999.90;999.90;;;18.00;99.90;;;;;;4996412;28;20170;-73
2023/07/31 06:22:16;;;;;;;1999.90;999.90;;;18.00;99.90;;;;;;4996046;28;20209;-73
2023/07/31 06:24:41;;;;;;;1999.90;999.90;;;17.90;99.90;;;;;;4996309;28;20409;-73
2023/07/31 06:27:07;;;;;;;1999.90;999.90;;;18.00;99.90;;;;;;4996141;28;20572;-72
2023/07/31 06:29:33;;;;;;;1999.90;999.90;;;18.00;99.90;;;;;;4996291;28;20251;-73
2023/07/31 06:31:59;;;;;;;1999.90;999.90;;;18.00;99.90;;;;;;4995762;28;20204;-74
2023/07/31 06:34:24;;;;;;;1999.90;999.90;;;18.10;99.90;;;;;;4996209;28;20172;-74
2023/07/31 06:36:50;;;;;;;1999.90;999.90;;;18.20;99.90;;;;;;4996054;28;20416;-74
2023/07/31 06:39:16;;;;;;;1999.90;999.90;;;18.20;99.90;;;;;;4996083;28;20170;-73
2023/07/31 06:41:42;;;;;;;1999.90;999.90;;;18.30;99.90;;;;;;4995953;28;20282;-75
2023/07/31 06:44:08;;;;;;;1999.90;999.90;;;18.40;99.90;;;;;;4996023;28;20191;-74
2023/07/31 06:46:34;;;;;;;1999.90;999.90;;;18.40;99.90;;;;;;4995872;28;20504;-73
2023/07/31 06:48:59;;;;;;;1999.90;999.90;;;18.50;99.90;;;;;;4995998;28;20173;-75
2023/07/31 06:51:25;;;;;;;1999.90;999.90;;;18.50;99.90;;;;;;4995495;28;20543;-74
2023/07/31 06:53:50;;;;;;;1999.90;999.90;;;18.60;99.90;;;;;;4995818;28;20178;-75
2023/07/31 06:56:16;;;;;;;1999.90;999.90;;;18.60;99.90;;;;;;4995818;28;20171;-74
2023/07/31 06:58:41;;;;;;;1999.90;999.90;;;18.60;99.90;;;;;;4995715;28;20171;-75
2023/07/31 07:01:07;;;;;;;1999.90;999.90;;;18.70;99.90;;;;;;4995308;28;20269;-75
2023/07/31 07:03:33;;;;;;;1999.90;999.90;;;18.80;99.90;;;;;;4995606;28;20185;-74
2023/07/31 07:05:58;;;;;;;1999.90;999.90;;;18.80;99.90;;;;;;4995416;28;20209;-73
2023/07/31 07:08:25;;;;;;;1999.90;999.90;;;18.70;99.90;;;;;;4995603;28;20168;-74
2023/07/31 07:10:50;;;;;;;1999.90;999.90;;;18.70;99.90;;;;;;4995342;28;20183;-73
2023/07/31 07:13:18;;;;;;;1999.90;999.90;;;18.70;99.90;;;;;;4995299;28;20439;-74
2023/07/31 07:15:47;;;;;;;1999.90;999.90;;;18.70;99.90;;;;;;4995362;28;20174;-74
2023/07/31 07:18:13;;;;;;;1999.90;999.90;;;18.70;99.90;;;;;;4994576;28;20496;-73
2023/07/31 07:20:39;;;;;;;1999.90;999.90;;;18.70;99.90;;;;;;4995102;28;20485;-74
2023/07/31 07:23:05;;;;;;;1999.90;999.90;;;18.60;99.90;;;;;;4994885;28;20444;-74
2023/07/31 07:25:30;;;;;;;1999.90;999.90;;;18.50;99.90;;;;;;4995196;28;20202;-74
2023/07/31 07:27:56;;;;;;;1999.90;999.90;;;18.50;99.90;;;;;;4995251;28;20172;-74
2023/07/31 07:30:23;;;;;;;1999.90;999.90;;;18.60;99.90;;;;;;4994320;28;20171;-74
2023/07/31 07:32:49;;;;;;;1999.90;999.90;;;18.60;99.90;;;;;;4994756;28;20284;-75
2023/07/31 07:35:14;;;;;;;1999.90;999.90;;;18.50;99.90;;;;;;4994127;28;20430;-75
2023/07/31 07:37:40;;;;;;;1999.90;999.90;;;18.50;99.90;;;;;;4994958;28;20552;-75
2023/07/31 07:40:06;;;;;;;1999.90;999.90;;;18.40;99.90;;;;;;4994907;28;20225;-75
2023/07/31 07:42:32;;;;;;;1999.90;999.90;;;18.20;99.90;;;;;;4994631;28;20186;-76
2023/07/31 07:44:58;;;;;;;1999.90;999.90;;;17.90;99.90;;;;;;4994886;28;20895;-76
2023/07/31 07:47:23;;;;;;;1999.90;999.90;;;17.80;99.90;;;;;;4994800;28;20474;-76
2023/07/31 07:49:49;;;;;;;1999.90;999.90;;;17.60;99.90;;;;;;4994811;28;20166;-76
2023/07/31 07:52:15;;;;;;;1999.90;999.90;;;17.60;99.90;;;;;;4994446;28;20199;-76
2023/07/31 07:54:40;;;;;;;1999.90;999.90;;;17.50;99.90;;;;;;4994682;28;20593;-75
2023/07/31 07:57:06;;;;;;;1999.90;999.90;;;17.40;99.90;;;;;;4994823;28;20188;-75
2023/07/31 07:59:31;;;;;;;1999.90;999.90;;;17.40;99.90;;;;;;4994679;28;20205;-75
2023/07/31 08:01:57;;;;;;;1999.90;999.90;;;17.40;99.90;;;;;;4994202;28;20200;-75
2023/07/31 08:04:23;;;;;;;1999.90;999.90;;;17.40;99.90;;;;;;4994547;28;20612;-76
2023/07/31 08:06:48;;;;;;;1999.90;999.90;;;17.50;99.90;;;;;;4994439;28;20699;-75
2023/07/31 08:09:14;;;;;;;1999.90;999.90;;;17.60;99.90;;;;;;4994466;28;20172;-76
2023/07/31 08:11:39;;;;;;;1999.90;999.90;;;17.70;99.90;;;;;;4994054;28;20190;-76
2023/07/31 08:14:05;;;;;;;1999.90;999.90;;;17.90;99.90;;;;;;4994321;28;20178;-75
2023/07/31 08:16:31;;;;;;;1999.90;999.90;;;17.90;99.90;;;;;;4993078;28;20609;-75
2023/07/31 08:18:56;;;;;;;1999.90;999.90;;;18.00;99.90;;;;;;4993185;28;20269;-73
2023/07/31 08:21:22;;;;;;;1999.90;999.90;;;18.10;99.90;;;;;;4991025;28;20712;-73
2023/07/31 08:23:48;;;;;;;1999.90;999.90;;;18.30;99.90;;;;;;4994350;28;20181;-74
2023/07/31 08:26:18;;;;;;;1999.90;999.90;;;18.30;99.90;;;;;;4994083;28;20976;-73
2023/07/31 08:28:44;;;;;;;1999.90;999.90;;;18.30;99.90;;;;;;4994055;28;20177;-73
2023/07/31 08:31:10;;;;;;;1999.90;999.90;;;18.40;99.90;;;;;;4993603;28;20468;-73
2023/07/31 08:33:36;;;;;;;1999.90;999.90;;;18.40;99.90;;;;;;4994005;28;20428;-73
2023/07/31 08:36:02;;;;;;;1999.90;999.90;;;18.50;99.90;;;;;;4993842;28;20422;-73
2023/07/31 08:38:29;;;;;;;1999.90;999.90;;;18.50;99.90;;;;;;4993780;28;21014;-73
2023/07/31 08:40:56;;;;;;;1999.90;999.90;;;18.50;99.90;;;;;;4993614;28;20410;-73
2023/07/31 08:43:27;;;;;;;1999.90;999.90;;;18.50;99.90;;;;;;4993842;28;20526;-73
2023/07/31 08:45:53;;;;;;;1999.90;999.90;;;18.50;99.90;;;;;;4993683;28;20453;-73
2023/07/31 08:48:21;;;;;;;1999.90;999.90;;;18.50;99.90;;;;;;4993984;28;20920;-73
2023/07/31 08:50:47;;;;;;;1999.90;999.90;;;18.50;99.90;;;;;;4994002;28;20467;-73
2023/07/31 08:53:13;;;;;;;1999.90;999.90;;;18.50;99.90;;;;;;4993396;28;20928;-74
2023/07/31 08:55:38;;;;;;;1999.90;999.90;;;18.50;99.90;;;;;;4993607;28;20176;-74
2023/07/31 08:58:04;;;;;;;1999.90;999.90;;;18.50;99.90;;;;;;4993502;28;20178;-74
2023/07/31 09:00:32;;;;;;;1999.90;999.90;;;18.40;99.90;;;;;;4993427;28;20186;-74
2023/07/31 09:03:09;;;;;;;1999.90;999.90;;;18.40;99.90;;;;;;4993046;28;20496;-74
2023/07/31 09:05:39;;;;;;;1999.90;999.90;;;18.30;99.90;;;;;;4993304;28;20907;-74
2023/07/31 09:08:05;;;;;;;1999.90;999.90;;;18.40;99.90;;;;;;4993355;28;20478;-74
2023/07/31 09:10:31;;;;;;;1999.90;999.90;;;18.50;99.90;;;;;;4993300;28;20408;-74
2023/07/31 09:12:58;;;;;;;1999.90;999.90;;;18.60;99.90;;;;;;4992889;28;20488;-74
2023/07/31 09:15:24;;;;;;;1999.90;999.90;;;18.70;99.90;;;;;;4993184;28;20252;-74
2023/07/31 09:18:00;;;;;;;1999.90;999.90;;;18.80;99.90;;;;;;4993073;28;20423;-74
2023/07/31 09:20:25;;;;;;;1999.90;999.90;;;19.00;99.90;;;;;;4993136;28;20930;-74
2023/07/31 09:22:51;;;;;;;1999.90;999.90;;;19.10;99.90;;;;;;4992733;28;20473;-74
2023/07/31 09:25:25;;;;;;;1999.90;999.90;;;19.20;99.90;;;;;;4993269;28;20188;-74
2023/07/31 09:28:02;;;;;;;1999.90;999.90;;;19.20;99.90;;;;;;4992998;28;20411;-73
2023/07/31 09:30:28;;;;;;;1999.90;999.90;;;19.20;99.90;;;;;;4992938;28;20408;-74
2023/07/31 09:33:07;;;;;;;1999.90;999.90;;;19.20;99.90;;;;;;4992414;28;20453;-73
2023/07/31 09:35:37;;;;;;;1999.90;999.90;;;19.30;99.90;;;;;;4993090;28;20179;-74
2023/07/31 09:38:05;;;;;;;1999.90;999.90;;;19.40;99.90;;;;;;4992903;28;20505;-74
2023/07/31 09:40:33;;;;;;;1999.90;999.90;;;19.40;99.90;;;;;;4992061;28;20433;-74
2023/07/31 09:43:03;;;;;;;1999.90;999.90;;;19.50;99.90;;;;;;4991820;28;20822;-75
2023/07/31 09:45:30;;;;;;;1999.90;999.90;;;19.60;99.90;;;;;;4988126;28;20467;-74
2023/07/31 09:47:56;;;;;;;1999.90;999.90;;;19.70;99.90;;;;;;4991757;28;20906;-74
2023/07/31 09:50:24;;;;;;;1999.90;999.90;;;19.80;99.90;;;;;;4992338;28;20931;-74
2023/07/31 09:52:51;;;;;;;1999.90;999.90;;;19.80;99.90;;;;;;4989405;28;20443;-76
2023/07/31 09:55:18;;;;;;;1999.90;999.90;;;19.80;99.90;;;;;;4991717;28;20428;-75
2023/07/31 09:57:48;;;;;;;1999.90;999.90;;;19.80;99.90;;;;;;4987930;28;20430;-76
2023/07/31 10:00:16;;;;;;;1999.90;999.90;;;19.80;99.90;;;;;;4987213;28;22183;-76
2023/07/31 10:02:45;;;;;;;1999.90;999.90;;;19.80;99.90;;;;;;4986818;28;20941;-75
2023/07/31 10:05:18;;;;;;;1999.90;999.90;;;19.80;99.90;;;;;;4986204;28;20798;-74
2023/07/31 10:07:51;;;;;;;1999.90;999.90;;;19.70;99.90;;;;;;4987424;28;20421;-75
2023/07/31 10:10:20;;;;;;;1999.90;999.90;;;19.70;99.90;;;;;;4987641;28;20429;-78
2023/07/31 10:12:47;;;;;;;1999.90;999.90;;;19.70;99.90;;;;;;4987590;28;21297;-76
2023/07/31 10:15:15;;;;;;;1999.90;999.90;;;19.80;99.90;;;;;;4987342;28;20843;-75
2023/07/31 10:17:41;;;;;;;1999.90;999.90;;;19.90;99.90;;;;;;4988559;28;20937;-76
2023/07/31 10:20:07;;;;;;;1999.90;999.90;;;20.00;99.90;;;;;;4989330;28;20467;-76
2023/07/31 10:22:34;;;;;;;1999.90;999.90;;;19.90;99.90;;;;;;4987854;28;20493;-75
2023/07/31 10:25:00;;;;;;;1999.90;999.90;;;19.90;99.90;;;;;;4990269;28;20436;-76
2023/07/31 10:27:26;;;;;;;1999.90;999.90;;;19.90;99.90;;;;;;4987381;28;20835;-75
2023/07/31 10:29:57;;;;;;;1999.90;999.90;;;19.90;99.90;;;;;;4986927;28;20988;-75
2023/07/31 10:32:24;;;;;;;1999.90;999.90;;;20.00;99.90;;;;;;4989459;28;20539;-74
2023/07/31 10:34:51;;;;;;;1999.90;999.90;;;20.00;99.90;;;;;;4987947;28;20424;-75
2023/07/31 10:37:21;;;;;;;1999.90;999.90;;;20.00;99.90;;;;;;4986930;28;20976;-74
2023/07/31 10:39:59;;;;;;;1999.90;999.90;;;19.90;99.90;;;;;;4987139;28;20409;-77
2023/07/31 10:42:30;;;;;;;1999.90;999.90;;;19.80;99.90;;;;;;4986051;28;20454;-75
2023/07/31 10:44:58;;;;;;;1999.90;999.90;;;19.80;99.90;;;;;;4987191;28;20866;-76
2023/07/31 10:47:24;;;;;;;1999.90;999.90;;;19.90;99.90;;;;;;4986389;28;20463;-76
2023/07/31 10:49:49;;;;;;;1999.90;999.90;;;19.90;99.90;;;;;;4986951;28;20421;-78
2023/07/31 10:52:23;;;;;;;1999.90;999.90;;;20.00;99.90;;;;;;4987367;28;20189;-76
2023/07/31 10:54:50;;;;;;;1999.90;999.90;;;20.00;99.90;;;;;;4988020;28;20648;-75
2023/07/31 10:57:22;;;;;;;1999.90;999.90;;;20.10;99.90;;;;;;4987228;28;20508;-76
2023/07/31 10:59:50;;;;;;;1999.90;999.90;;;20.10;99.90;;;;;;4986462;28;20780;-76
2023/07/31 11:02:26;;;;;;;1999.90;999.90;;;20.10;99.90;;;;;;4987481;28;20464;-76
2023/07/31 11:05:09;;;;;;;1999.90;999.90;;;20.10;99.90;;;;;;4988539;28;20438;-75
2023/07/31 11:07:50;;;;;;;1999.90;999.90;;;20.20;99.90;;;;;;4990425;28;20420;-76
2023/07/31 11:10:19;;;;;;;1999.90;999.90;;;20.30;99.90;;;;;;4990875;28;20404;-76
2023/07/31 11:12:46;;;;;;;1999.90;999.90;;;20.40;99.90;;;;;;4990568;28;20436;-75
2023/07/31 11:15:12;;;;;;;1999.90;999.90;;;20.50;99.90;;;;;;4991190;28;20437;-75
2023/07/31 11:17:41;;;;;;;1999.90;999.90;;;20.60;99.90;;;;;;4990979;28;21008;-76
2023/07/31 11:20:07;;;;;;;1999.90;999.90;;;20.70;99.90;;;;;;4990603;28;20197;-75
2023/07/31 11:22:37;;;;;;;1999.90;999.90;;;20.70;99.90;;;;;;4990755;28;20523;-75
2023/07/31 11:25:04;;;;;;;1999.90;999.90;;;20.60;99.90;;;;;;4990499;28;20405;-75
2023/07/31 11:27:30;;;;;;;1999.90;999.90;;;20.70;99.90;;;;;;4990684;28;20906;-75
2023/07/31 11:30:02;;;;;;;1999.90;999.90;;;20.80;99.90;;;;;;4990962;28;20405;-76
2023/07/31 11:32:28;;;;;;;1999.90;999.90;;;20.90;99.90;;;;;;4991443;28;20488;-76
2023/07/31 11:34:54;;;;;;;1999.90;999.90;;;21.00;99.90;;;;;;4990400;28;20784;-76
2023/07/31 11:37:20;;;;;;;1999.90;999.90;;;21.10;99.90;;;;;;4990414;28;20255;-78
2023/07/31 11:40:01;;;;;;;1999.90;999.90;;;21.30;99.90;;;;;;4990926;28;20426;-75
2023/07/31 11:42:27;;;;;;;1999.90;999.90;;;21.10;99.90;;;;;;4990958;28;20240;-76
2023/07/31 11:44:52;;;;;;;1999.90;999.90;;;21.00;99.90;;;;;;4988541;28;20461;-76
2023/07/31 11:47:18;;;;;;;1999.90;999.90;;;21.00;99.90;;;;;;4990130;28;20205;-77
2023/07/31 11:49:43;;;;;;;1999.90;999.90;;;20.70;99.90;;;;;;4990872;28;20184;-76
2023/07/31 11:52:10;;;;;;;1999.90;999.90;;;20.60;99.90;;;;;;4989457;28;20224;-76
2023/07/31 11:54:36;;;;;;;1999.90;999.90;;;20.50;99.90;;;;;;4990157;28;20553;-76
2023/07/31 11:57:03;;;;;;;1999.90;999.90;;;20.50;99.90;;;;;;4990846;28;20817;-75